x

West Santa Barbara 38 Nm West Of Santa Barbara, Ca (46054) Wave Buoy

6:50pm - Sat 10th Dec 2016 All times are PST. -8 hours from GMT.

  • Sig Wave height 3.6ft
  • Swell Direction
  • Peak Period 13s
  • Average Period 7s
  • Wind
    11mph, 13mph gusts
  • Sea Temp 58°f
  • 空気 Temp 58°f
  • Sea Pressure 1020.3mb
  • West Santa Barbara  38 Nm West Of Santa Barbara, Ca
  • West Santa Barbara  38 Nm West Of Santa Barbara, Ca

More Historic Weather Station data

Upgrade to MSW Pro to gain access to the past 30 days of data for over 8000 Wavebouys and Weather Stations around the globe.

Join Pro

Comparision Forecast

View Surf forecast
   
Sat 12/10 6:50pm 3.5ft 13s 7s 11 13 mph 1020.3mb 58f 58f
5:50pm 4.5ft 13s 7s 13 16 mph 1020.1mb 58f 58f
4:50pm 4.5ft 14s 7s 11 13 mph 1019.6mb 58f 58f
3:50pm 4.5ft 14s 7s 11 13 mph 1019.9mb 57f 58f
2:50pm 4ft 14s 7s 11 13 mph 1020mb 57f 58f
1:50pm 4.5ft 14s 7s 9 11 mph 1020.4mb 57f 58f
12:50pm 5ft 14s 8s 11 13 mph 1021.1mb 57f 58f
11:50am 4.5ft 9s 8s 11 13 mph 1021.9mb 57f 58f
10:50am 4.5ft 15s 8s 9 11 mph 1023mb 57f 58f
9:50am 4.5ft 15s 7s 11 13 mph 1023.3mb 57f 58f
8:50am 4.5ft 14s 7s 13 16 mph 1022.4mb 57f 58f
7:50am 4.5ft 15s 7s 13 16 mph 1022mb 57f 58f
6:50am 4.5ft 8s 7s 13 16 mph 1022.1mb 56f 58f
5:50am 4.5ft 10s 8s 11 13 mph 1021.9mb 56f 58f
3:50am 5ft 10s 8s 11 13 mph 1021.9mb 56f 58f
2:50am 5ft 15s 7s 13 16 mph 1022mb 56f 58f
1:50am 5ft 8s 7s 11 13 mph 1022.3mb 56f 57f
12:50am 5ft 10s 8s 13 16 mph 1022.2mb 56f 57f
Fri 12/09 11:50pm 5ft 15s 8s 11 13 mph 1022.5mb 56f 57f
10:50pm 4.5ft 9s 8s 11 13 mph 1022.7mb 57f 57f
9:50pm 4.5ft 15s 8s 11 13 mph 1022.7mb 57f 58f
8:50pm 5ft 8s 8s 4 7 mph 1022.8mb 57f 58f
7:50pm 4.5ft 15s 7s 9
mph
1022.6mb 57f 58f
6:50pm 4.5ft 16s 7s 16 18 mph 1021.9mb 57f 58f
5:50pm 5ft 16s 7s 13 16 mph 1021.7mb 57f 58f
4:50pm 4.5ft 16s 8s 13 16 mph 1022.2mb 57f 58f
3:50pm 5ft 16s 8s 11 13 mph 1022.3mb 57f 58f
2:50pm 5ft 16s 7s 7 9 mph 1022.6mb 57f 58f
1:50pm 5ft 16s 8s 7 9 mph 1023mb 57f 58f
12:50pm 4.5ft 8s 7s 7 9 mph 1023.9mb 57f 58f
11:50am 5ft 16s 8s 7 9 mph 1024.8mb 56f 57f
10:50am 4.5ft 9s 7s 7 9 mph 1025.6mb 56f 57f
9:50am 4.5ft 16s 7s 4 7 mph 1025.7mb 56f 58f
8:50am 5ft 9s 8s 4 7 mph 1025.2mb 56f 58f
7:50am 4.5ft 9s 7s 2 4 mph 1024.9mb 56f 57f
6:50am 4.5ft 16s 8s 2
mph
1024.7mb 56f 57f
5:50am 5ft 8s 8s 2 4 mph 1024.1mb 56f 57f
4:50am 4.5ft 8s 8s 2 4 mph 1023.7mb 56f 57f
3:50am 4.5ft 8s 7s 4
mph
1024.1mb 56f 57f
2:50am 4ft 8s 7s 7
mph
1024.5mb 56f 57f
1:50am 4ft 8s 7s 7
mph
1024.6mb 56f 58f
12:50am 3.5ft 9s 7s 2 4 mph 1024.7mb 56f 57f
Thu 12/08 11:50pm 4ft 8s 7s 2
mph
1024.9mb 56f 57f
10:50pm 3.5ft 8s 7s 2
mph
1025mb 56f 57f
9:50pm 4ft 8s 7s 7
mph
1024.9mb 56f 58f
8:50pm 3.5ft 15s 7s 7 9 mph 1024.7mb 56f 58f
7:50pm 3.5ft 15s 7s 7 9 mph 1024.4mb 56f 57f
6:50pm 3.5ft 15s 7s 7
mph
1024.1mb 56f 57f
5:50pm 3.5ft 16s 7s 2
mph
1024.1mb 56f 57f
4:50pm 3.5ft 11s 7s 2
mph
1023.8mb 56f 57f
3:50pm 3ft 16s 7s 2 4 mph 1023.6mb 56f 57f
2:50pm 2.5ft 15s 7s 4
mph
1023.7mb 56f 57f
1:50pm 2.5ft 11s 8s 4
mph
1023.5mb 56f 58f
12:50pm 2.5ft 15s 8s 7
mph
1023.6mb 56f 57f
11:50am 2.5ft 16s 9s 7
mph
1024.3mb 56f 57f
10:50am 2.5ft 16s 8s 7 9 mph 1025mb 56f 56f
9:50am 2.5ft 11s 8s 4
mph
1024.9mb 56f 56f
8:50am 3ft 11s 8s 2
mph
1024.4mb 55f 56f
7:50am 3ft 12s 8s 2 4 mph 1023.7mb 56f 55f
6:50am 4ft 10s 8s  -  2 mph 1023mb 56f 55f
5:50am 4ft 13s 8s  -  2 mph 1022.4mb 56f 55f
4:50am 3.5ft 12s 8s 2 4 mph 1021.7mb 56f 55f
3:50am 4.5ft 13s 8s  -  2 mph 1021.9mb 55f 56f
2:50am 4.5ft 13s 8s 4
mph
1022.3mb 55f 56f
1:50am 4.5ft 13s 8s 2 4 mph 1022.1mb 55f 55f
12:50am 5ft 13s 8s 7 9 mph 1021.8mb 55f 55f
Wed 12/07 11:50pm 5ft 13s 8s 9
mph
1021.9mb 55f 55f
9:50pm 6ft 11s 8s 11 16 mph 1021.8mb 55f 55f
8:50pm 6ft 11s 7s 13 16 mph 1021.4mb 55f 55f
7:50pm 6.5ft 11s 7s 16 18 mph 1020.9mb 55f 55f
6:50pm 7ft 13s 7s 16 20 mph 1020.8mb 55f 55f
5:50pm 6.5ft 14s 7s 18 20 mph 1020.2mb 55f 55f
4:50pm 6ft 13s 7s 18 20 mph 1019.6mb 55f 55f
3:50pm 7ft 13s 8s 16 18 mph 1019.5mb 56f 56f
2:50pm 6ft 13s 7s 16 18 mph 1019.5mb 56f 55f
1:50pm 7ft 13s 7s 20 22 mph 1019.4mb 56f 55f
12:50pm 7ft 14s 7s 22 27 mph 1019.7mb 56f 55f
11:50am 7.5ft 14s 7s 22 27 mph 1020.1mb 56f 55f
10:50am 7ft 14s 7s 22 27 mph 1020.3mb 56f 55f
9:50am 6.5ft 14s 7s 22 25 mph 1020.3mb 56f 54f
8:50am 7ft 13s 7s 20 25 mph 1019.5mb 56f 54f
7:50am 7ft 11s 7s 20 22 mph 1018.8mb 56f 54f
6:50am 8ft 11s 7s 20 22 mph 1018mb 57f 54f
5:50am 8ft 12s 7s 20 25 mph 1017.8mb 57f 54f
4:50am 7.5ft 8s 7s 20 25 mph 1017.6mb 57f 54f